Airfield :
LOGIN :

Register | Disclaimer

   EN    FR    IT 

 










Legend :    VFR   Marginal VFR   IFR   Intensive IFR   Very Intensive IFR
Visi :
Ceiling :
>= 8 km
>= 3000ft
5 to 8 km
1000 to 3000 ft
1500m to 5 km
500 to 1000 ft
800 to 1500m
200 to 500 ft
< 800m
< 200 ft
Symbols :   Thunderstorms  Fog  Heavy snow  Heavy precipitations  Wind > 20 kt
SIGMETs :     Misc.  Thunderstorms  Icing  Turbulence  Mountain Waves  Volcanic Ashes






- Airport Elevation : 622 ft
- IATA code : BRS


EGGD - Bristol Int.

CURRENT METAR :
  • 170550Z AUTO 15006KT 9999 NCD 08/06 Q1005

EXPIRED METARs :
  • 170520Z AUTO 16006KT 140V200 9999 NCD 08/06 Q1005
  • 170450Z AUTO 17006KT 9999 NCD 08/06 Q1005
  • 170420Z AUTO 18005KT 9999 NCD 08/05 Q1005
  • 170350Z AUTO 18005KT 9999 NCD 08/06 Q1005
  • 170320Z AUTO 18004KT 9999 NCD 09/05 Q1005

TAF TAF EGGD
Valid from the 17 at 06:00 until the 18 at 06:00 UTC


170454Z 1706/1806 21008KT 9999 FEW030
TEMPO 1708/1806 7000 SHRA
PROB30
TEMPO 1713/1806 22015G25KT 3000 +SHRA BKN012CB
ATIS : +44 1275 473 666



MET'MAP, your aeronautical weather chart ! - Copyright ORBIFLY December 2007 - Disclaimer

ORBIFLY MET'MAP TEAM :

Programming & Development : Alexandra Zaïnal
Concept & Development : Baudouin d'Aumeries
Co-Development & Prog : Marc-Olivier Méhu
Technical & hardware support : Manuel Goepfert

Contact : metmap@orbifly.com




SOURCES & CREDITS :

   NOAA